createdAt,value
2023-05-14T00:00:54.436Z,65.65
2023-05-14T00:03:20.667Z,65.41
2023-05-14T00:05:46.820Z,65.61
2023-05-14T00:08:12.946Z,65.68
2023-05-14T00:10:39.108Z,65.53
2023-05-14T00:13:05.216Z,65.63
2023-05-14T00:15:33.556Z,65.58
2023-05-14T00:18:00.442Z,65.69
2023-05-14T00:20:26.570Z,65.77
2023-05-14T00:22:52.686Z,65.57
2023-05-14T00:25:18.791Z,65.63
2023-05-14T00:27:44.901Z,65.59
2023-05-14T00:30:11.025Z,65.72
2023-05-14T00:32:37.148Z,65.63
2023-05-14T00:35:03.265Z,65.67
2023-05-14T00:37:29.437Z,65.72
2023-05-14T00:39:55.540Z,65.55
2023-05-14T00:42:21.635Z,65.57
2023-05-14T00:44:47.742Z,65.57
2023-05-14T00:47:13.976Z,65.60
2023-05-14T00:49:40.092Z,65.69
2023-05-14T00:52:06.205Z,65.62
2023-05-14T00:54:32.302Z,65.62
2023-05-14T00:56:58.415Z,65.60
2023-05-14T00:59:24.545Z,65.63
2023-05-14T01:01:50.647Z,65.53
2023-05-14T01:04:16.740Z,65.64
2023-05-14T01:06:42.931Z,65.60
2023-05-14T01:09:09.031Z,65.70
2023-05-14T01:11:35.158Z,65.65
2023-05-14T01:14:01.299Z,65.61
2023-05-14T01:16:27.424Z,65.57
2023-05-14T01:18:53.599Z,65.54
2023-05-14T01:21:19.738Z,65.55
2023-05-14T01:23:45.839Z,65.55
2023-05-14T01:26:11.946Z,65.55
2023-05-14T01:28:38.090Z,65.57
2023-05-14T01:31:04.202Z,65.60
2023-05-14T01:33:30.299Z,65.56
2023-05-14T01:35:56.428Z,65.56
2023-05-14T01:38:22.531Z,65.62
2023-05-14T01:40:48.648Z,65.68
2023-05-14T01:43:14.824Z,65.64
2023-05-14T01:45:41.018Z,65.63
2023-05-14T01:48:07.176Z,65.72
2023-05-14T01:50:33.366Z,65.59
2023-05-14T01:52:59.480Z,65.62
2023-05-14T01:55:25.593Z,66.08
2023-05-14T01:57:51.788Z,65.64
2023-05-14T02:00:17.899Z,65.54
2023-05-14T02:02:44.035Z,65.72
2023-05-14T02:05:10.203Z,65.58
2023-05-14T02:07:36.311Z,65.59
2023-05-14T02:10:02.426Z,65.55
2023-05-14T02:12:28.550Z,65.55
2023-05-14T02:14:54.654Z,65.59
2023-05-14T02:17:20.742Z,65.68
2023-05-14T02:19:46.875Z,65.68
2023-05-14T02:22:12.980Z,65.58
2023-05-14T02:24:39.078Z,65.68
2023-05-14T02:27:05.193Z,65.61
2023-05-14T02:29:31.304Z,65.68
2023-05-14T02:31:57.520Z,65.67
2023-05-14T02:34:23.664Z,65.54
2023-05-14T02:36:49.767Z,65.56
2023-05-14T02:39:15.855Z,65.54
2023-05-14T02:41:42.112Z,65.59
2023-05-14T02:44:08.199Z,65.54
2023-05-14T02:46:34.314Z,65.54
2023-05-14T02:49:00.473Z,65.65
2023-05-14T02:51:26.562Z,65.58
2023-05-14T02:53:52.674Z,65.61
2023-05-14T02:56:18.796Z,65.68
2023-05-14T02:58:44.891Z,65.54
2023-05-14T03:01:11.028Z,65.73
2023-05-14T03:03:37.730Z,65.49
2023-05-14T03:06:04.263Z,65.70
2023-05-14T03:08:30.366Z,65.65
2023-05-14T03:10:56.492Z,65.61
2023-05-14T03:13:22.599Z,65.57
2023-05-14T03:15:48.781Z,65.56
2023-05-14T03:18:14.948Z,65.58
2023-05-14T03:20:41.046Z,65.67
2023-05-14T03:23:07.162Z,65.51
2023-05-14T03:25:33.279Z,65.56
2023-05-14T03:27:59.370Z,65.69
2023-05-14T03:30:25.794Z,65.64
2023-05-14T03:32:52.172Z,65.71
2023-05-14T03:35:18.333Z,65.54
2023-05-14T03:37:44.444Z,65.51
2023-05-14T03:40:10.587Z,65.68
2023-05-14T03:42:36.695Z,65.75
2023-05-14T03:45:02.813Z,65.51
2023-05-14T03:47:29.029Z,65.51
2023-05-14T03:49:55.198Z,65.61
2023-05-14T03:52:21.334Z,65.71
2023-05-14T03:54:47.514Z,65.63
2023-05-14T03:57:13.621Z,65.55
2023-05-14T03:59:39.739Z,65.64
2023-05-14T04:02:05.870Z,65.70
2023-05-14T04:04:32.060Z,65.51
2023-05-14T04:06:58.221Z,65.51
2023-05-14T04:09:24.330Z,65.61
2023-05-14T04:11:50.431Z,65.52
2023-05-14T04:14:16.580Z,65.66
2023-05-14T04:16:42.785Z,65.46
2023-05-14T04:19:09.041Z,65.64
2023-05-14T04:21:35.248Z,65.54
2023-05-14T04:24:01.358Z,65.67
2023-05-14T04:26:27.604Z,65.50
2023-05-14T04:28:53.703Z,65.51
2023-05-14T04:31:19.847Z,65.60
2023-05-14T04:33:45.963Z,65.70
2023-05-14T04:36:12.084Z,65.72
2023-05-14T04:38:38.208Z,65.58
2023-05-14T04:41:04.321Z,65.58
2023-05-14T04:43:30.433Z,65.54
2023-05-14T04:45:56.603Z,65.57
2023-05-14T04:48:22.816Z,65.66
2023-05-14T04:50:48.917Z,65.53
2023-05-14T04:53:15.047Z,65.62
2023-05-14T04:55:41.147Z,65.52
2023-05-14T04:58:07.267Z,65.55
2023-05-14T05:00:33.462Z,65.63
2023-05-14T05:02:59.692Z,65.65
2023-05-14T05:05:25.841Z,65.65
2023-05-14T05:07:52.091Z,65.70
2023-05-14T05:10:18.194Z,65.65
2023-05-14T05:12:44.292Z,65.53
2023-05-14T05:15:10.414Z,65.54
2023-05-14T05:17:36.582Z,65.65
2023-05-14T05:20:02.748Z,65.59
2023-05-14T05:22:28.877Z,65.56
2023-05-14T05:24:54.991Z,65.52
2023-05-14T05:27:21.101Z,65.63
2023-05-14T05:29:47.271Z,65.50
2023-05-14T05:32:13.380Z,65.50
2023-05-14T05:34:39.465Z,65.58
2023-05-14T05:37:05.588Z,65.46
2023-05-14T05:39:31.685Z,65.60
2023-05-14T05:41:57.792Z,65.51
2023-05-14T05:44:23.914Z,65.49
2023-05-14T05:46:50.012Z,65.55
2023-05-14T05:49:16.157Z,65.60
2023-05-14T05:51:42.505Z,65.49
2023-05-14T05:54:08.604Z,65.54
2023-05-14T05:56:34.695Z,65.50
2023-05-14T05:59:00.825Z,65.51
2023-05-14T06:01:26.989Z,65.54
2023-05-14T06:03:53.089Z,65.48
2023-05-14T06:06:19.203Z,65.43
2023-05-14T06:08:45.305Z,65.56
2023-05-14T06:11:11.709Z,65.44
2023-05-14T06:13:37.933Z,65.77
2023-05-14T06:16:04.076Z,65.53
2023-05-14T06:18:30.247Z,65.68
2023-05-14T06:20:56.616Z,65.51
2023-05-14T06:23:22.721Z,65.43
2023-05-14T06:25:50.622Z,65.44
2023-05-14T06:28:16.923Z,65.58
2023-05-14T06:30:43.029Z,65.47
2023-05-14T06:33:09.169Z,65.44
2023-05-14T06:35:35.417Z,65.59
2023-05-14T06:38:01.506Z,65.42
2023-05-14T06:40:27.605Z,65.50
2023-05-14T06:42:53.737Z,65.50
2023-05-14T06:45:19.835Z,65.49
2023-05-14T06:47:45.966Z,65.53
2023-05-14T06:50:12.120Z,65.50
2023-05-14T06:52:38.216Z,65.39
2023-05-14T06:55:04.320Z,65.40
2023-05-14T06:57:30.648Z,65.43
2023-05-14T06:59:56.744Z,65.44
2023-05-14T07:02:22.904Z,65.46
2023-05-14T07:04:49.123Z,65.43
2023-05-14T07:07:15.342Z,65.46
2023-05-14T07:09:41.557Z,65.52
2023-05-14T07:12:07.656Z,65.42
2023-05-14T07:14:33.754Z,65.55
2023-05-14T07:16:59.855Z,65.46
2023-05-14T07:19:26.183Z,65.52
2023-05-14T07:21:52.316Z,65.49
2023-05-14T07:24:18.431Z,65.42
2023-05-14T07:26:44.679Z,65.44
2023-05-14T07:29:10.793Z,65.41
2023-05-14T07:31:36.921Z,65.48
2023-05-14T07:34:03.061Z,65.56
2023-05-14T07:36:29.152Z,65.47
2023-05-14T07:38:55.256Z,65.42
2023-05-14T07:44:02.439Z,65.46
2023-05-14T07:46:28.584Z,65.59
2023-05-14T07:48:54.689Z,65.39
2023-05-14T07:51:20.844Z,65.40
2023-05-14T07:53:46.953Z,65.52
2023-05-14T07:56:14.536Z,65.40
2023-05-14T07:58:40.703Z,65.47
2023-05-14T08:01:06.805Z,65.40
2023-05-14T08:03:32.993Z,65.39
2023-05-14T08:05:59.160Z,65.51
2023-05-14T08:08:25.260Z,65.36
2023-05-14T08:10:51.397Z,65.35
2023-05-14T08:13:17.633Z,65.35
2023-05-14T08:15:43.736Z,65.43
2023-05-14T08:18:09.852Z,65.48
2023-05-14T08:20:35.998Z,65.35
2023-05-14T08:23:02.117Z,65.33
2023-05-14T08:25:28.269Z,65.38
2023-05-14T08:27:54.435Z,65.27
2023-05-14T08:30:20.553Z,65.39
2023-05-14T08:32:46.705Z,65.31
2023-05-14T08:35:12.937Z,65.32
2023-05-14T08:37:39.082Z,65.34
2023-05-14T08:40:05.209Z,65.44
2023-05-14T08:42:31.356Z,65.28
2023-05-14T08:44:57.460Z,65.40
2023-05-14T08:47:23.788Z,65.33
2023-05-14T08:49:50.128Z,65.34
2023-05-14T08:52:16.216Z,65.29
2023-05-14T08:54:42.341Z,65.34
2023-05-14T08:57:08.466Z,65.46
2023-05-14T08:59:34.584Z,65.29
2023-05-14T09:02:00.775Z,65.38
2023-05-14T09:04:27.049Z,65.23
2023-05-14T09:06:53.166Z,65.19
2023-05-14T09:09:19.324Z,65.26
2023-05-14T09:11:45.461Z,65.25
2023-05-14T09:14:11.573Z,65.25
2023-05-14T09:16:37.734Z,65.30
2023-05-14T09:19:04.372Z,65.24
2023-05-14T09:21:32.903Z,65.26
2023-05-14T09:23:59.641Z,65.37
2023-05-14T09:26:25.831Z,65.18
2023-05-14T09:28:51.924Z,65.26
2023-05-14T09:31:18.043Z,65.28
2023-05-14T09:33:44.194Z,65.36
2023-05-14T09:36:10.286Z,65.24
2023-05-14T09:38:36.400Z,65.25
2023-05-14T09:41:02.558Z,65.19
2023-05-14T09:43:28.686Z,65.35
2023-05-14T09:45:54.794Z,65.22
2023-05-14T09:48:20.926Z,65.14
2023-05-14T09:50:47.078Z,65.27
2023-05-14T09:53:13.212Z,65.20
2023-05-14T09:55:39.342Z,65.26
2023-05-14T09:58:05.438Z,65.21
2023-05-14T10:00:31.540Z,65.34
2023-05-14T10:02:57.785Z,65.22
2023-05-14T10:05:23.937Z,65.18
2023-05-14T10:07:50.052Z,65.19
2023-05-14T10:10:16.195Z,65.26
2023-05-14T10:12:42.313Z,65.27
2023-05-14T10:15:08.472Z,65.31
2023-05-14T10:17:34.801Z,65.19
2023-05-14T10:20:00.966Z,65.15
2023-05-14T10:22:27.083Z,65.25
2023-05-14T10:24:53.219Z,65.18
2023-05-14T10:27:19.326Z,65.33
2023-05-14T10:29:45.434Z,65.21
2023-05-14T10:32:11.942Z,65.11
2023-05-14T10:34:38.073Z,65.04
2023-05-14T10:37:04.194Z,65.08
2023-05-14T10:39:30.334Z,65.29
2023-05-14T10:41:56.468Z,65.07
2023-05-14T10:44:22.573Z,65.08
2023-05-14T10:46:48.714Z,64.86
2023-05-14T10:49:14.818Z,65.03
2023-05-14T10:51:40.948Z,65.05
2023-05-14T10:54:07.139Z,65.08
2023-05-14T10:56:33.272Z,64.99
2023-05-14T10:58:59.385Z,65.13
2023-05-14T11:01:25.535Z,65.02
2023-05-14T11:03:51.718Z,65.04
2023-05-14T11:06:17.841Z,65.08
2023-05-14T11:08:44.131Z,65.17
2023-05-14T11:11:10.235Z,65.09
2023-05-14T11:13:36.371Z,65.10
2023-05-14T11:16:15.039Z,65.23
2023-05-14T11:18:47.567Z,65.13
2023-05-14T11:21:13.801Z,65.15
2023-05-14T11:23:39.962Z,65.26
2023-05-14T11:26:06.107Z,65.14
2023-05-14T11:28:32.276Z,65.12
2023-05-14T11:30:58.374Z,65.10
2023-05-14T11:33:24.480Z,65.10
2023-05-14T11:35:50.609Z,65.06
2023-05-14T11:38:16.708Z,65.22
2023-05-14T11:40:42.816Z,65.11
2023-05-14T11:43:08.940Z,65.16
2023-05-14T11:45:35.063Z,65.31
2023-05-14T11:48:01.281Z,65.07
2023-05-14T11:50:27.547Z,65.07
2023-05-14T11:52:53.726Z,65.03
2023-05-14T11:55:19.825Z,65.22
2023-05-14T11:57:45.940Z,65.02
2023-05-14T12:00:12.042Z,65.00
2023-05-14T12:02:38.217Z,65.01
2023-05-14T12:05:04.384Z,65.04
2023-05-14T12:07:30.492Z,65.16
2023-05-14T12:09:56.604Z,65.03
2023-05-14T12:12:22.745Z,65.13
2023-05-14T12:14:48.832Z,65.05
2023-05-14T12:17:14.966Z,65.14
2023-05-14T12:19:41.098Z,65.27
2023-05-14T12:22:07.192Z,65.05
2023-05-14T12:24:33.305Z,65.06
2023-05-14T12:26:59.495Z,65.08
2023-05-14T12:29:25.590Z,65.02
2023-05-14T12:31:51.740Z,65.06
2023-05-14T12:34:17.951Z,64.98
2023-05-14T12:36:44.073Z,65.17
2023-05-14T12:39:10.183Z,64.97
2023-05-14T12:41:36.315Z,65.08
2023-05-14T12:44:02.447Z,65.00
2023-05-14T12:46:28.573Z,64.97
2023-05-14T12:48:54.720Z,65.04
2023-05-14T12:51:20.860Z,64.98
2023-05-14T12:53:46.956Z,64.93
2023-05-14T12:56:13.075Z,65.07
2023-05-14T12:58:39.179Z,64.99
2023-05-14T13:01:05.281Z,64.90
2023-05-14T13:03:31.497Z,64.92
2023-05-14T13:05:57.600Z,64.92
2023-05-14T13:08:23.698Z,64.93
2023-05-14T13:10:49.881Z,64.88
2023-05-14T13:13:16.006Z,64.92
2023-05-14T13:15:42.140Z,64.91
2023-05-14T13:18:08.304Z,65.01
2023-05-14T13:20:34.472Z,65.08
2023-05-14T13:23:00.592Z,64.89
2023-05-14T13:25:29.797Z,64.98
2023-05-14T13:27:55.936Z,65.04
2023-05-14T13:30:22.047Z,64.85
2023-05-14T13:32:48.238Z,64.90
2023-05-14T13:35:14.379Z,65.06
2023-05-14T13:37:40.473Z,65.03
2023-05-14T13:40:06.639Z,64.94
2023-05-14T13:42:32.758Z,64.84
2023-05-14T13:44:58.846Z,64.95
2023-05-14T13:47:24.979Z,64.85
2023-05-14T13:49:51.169Z,65.02
2023-05-14T13:52:17.274Z,64.85
2023-05-14T13:54:43.410Z,64.92
2023-05-14T13:57:09.511Z,64.90
2023-05-14T13:59:35.629Z,65.02
2023-05-14T14:02:01.813Z,64.93
2023-05-14T14:04:27.999Z,64.88
2023-05-14T14:06:54.159Z,65.00
2023-05-14T14:09:20.269Z,64.85
2023-05-14T14:11:46.487Z,64.93
2023-05-14T14:14:12.665Z,64.92
2023-05-14T14:16:38.846Z,64.88
2023-05-14T14:19:04.999Z,64.92
2023-05-14T14:21:31.155Z,64.95
2023-05-14T14:23:57.291Z,64.83
2023-05-14T14:26:23.385Z,64.79
2023-05-14T14:28:49.487Z,64.82
2023-05-14T14:31:15.631Z,64.78
2023-05-14T14:33:41.871Z,64.81
2023-05-14T14:36:08.010Z,64.83
2023-05-14T14:38:34.136Z,64.68
2023-05-14T14:41:00.244Z,64.76
2023-05-14T14:43:26.340Z,64.78
2023-05-14T14:45:52.516Z,64.90
2023-05-14T14:48:18.639Z,65.08
2023-05-14T14:50:44.754Z,64.63
2023-05-14T14:53:10.855Z,64.62
2023-05-14T14:55:36.942Z,64.62
2023-05-14T14:58:03.037Z,64.60
2023-05-14T15:00:29.161Z,64.69
2023-05-14T15:02:55.300Z,64.67
2023-05-14T15:05:21.572Z,64.67
2023-05-14T15:07:47.825Z,64.64
2023-05-14T15:10:13.955Z,64.75
2023-05-14T15:12:40.062Z,64.75
2023-05-14T15:15:06.186Z,64.78
2023-05-14T15:17:32.334Z,64.59
2023-05-14T15:19:58.494Z,64.53
2023-05-14T15:22:24.735Z,64.64
2023-05-14T15:24:50.828Z,64.72
2023-05-14T15:27:16.925Z,64.73
2023-05-14T15:29:43.034Z,64.66
2023-05-14T15:32:09.146Z,64.72
2023-05-14T15:34:35.225Z,64.57
2023-05-14T15:37:01.403Z,64.51
2023-05-14T15:39:29.524Z,64.63
2023-05-14T15:41:56.171Z,64.70
2023-05-14T15:44:22.313Z,64.70
2023-05-14T15:46:48.496Z,64.69
2023-05-14T15:49:14.607Z,64.61
2023-05-14T15:51:40.736Z,64.57
2023-05-14T15:54:06.833Z,64.63
2023-05-14T15:56:32.941Z,64.63
2023-05-14T15:58:59.119Z,64.48
2023-05-14T16:01:25.271Z,64.58
2023-05-14T16:03:51.517Z,64.75
2023-05-14T16:06:17.741Z,64.62
2023-05-14T16:08:43.827Z,64.54
2023-05-14T16:11:09.943Z,64.62
2023-05-14T16:13:36.064Z,64.69
2023-05-14T16:16:02.224Z,64.61
2023-05-14T16:18:28.422Z,64.38
2023-05-14T16:20:54.562Z,64.66
2023-05-14T16:23:20.663Z,64.68
2023-05-14T16:25:46.793Z,64.75
2023-05-14T16:28:12.980Z,64.76
2023-05-14T16:30:39.126Z,64.55
2023-05-14T16:33:05.275Z,64.73
2023-05-14T16:35:31.428Z,64.69
2023-05-14T16:37:57.518Z,64.68
2023-05-14T16:40:23.939Z,64.60
2023-05-14T16:42:50.327Z,64.58
2023-05-14T16:45:16.414Z,64.62
2023-05-14T16:47:42.572Z,64.68
2023-05-14T16:50:08.738Z,64.58
2023-05-14T16:52:34.834Z,64.53
2023-05-14T16:55:00.938Z,64.42
2023-05-14T16:57:27.072Z,64.43
2023-05-14T16:59:53.173Z,64.48
2023-05-14T17:02:19.258Z,64.71
2023-05-14T17:04:45.430Z,64.40
2023-05-14T17:07:11.551Z,64.55
2023-05-14T17:09:37.665Z,64.54
2023-05-14T17:12:03.783Z,64.32
2023-05-14T17:14:29.871Z,64.38
2023-05-14T17:16:55.964Z,64.40
2023-05-14T17:19:22.390Z,64.39
2023-05-14T17:21:48.550Z,64.34
2023-05-14T17:24:14.646Z,64.50
2023-05-14T17:26:40.881Z,64.50
2023-05-14T17:29:06.999Z,64.52
2023-05-14T17:31:33.175Z,64.38
2023-05-14T17:33:59.324Z,64.49
2023-05-14T17:36:25.427Z,64.53
2023-05-14T17:38:51.516Z,64.58
2023-05-14T17:41:17.638Z,64.45
2023-05-14T17:43:43.728Z,64.47
2023-05-14T17:46:09.834Z,64.37
2023-05-14T17:48:36.007Z,64.49
2023-05-14T17:51:02.103Z,64.49
2023-05-14T17:53:28.259Z,64.40
2023-05-14T17:55:54.403Z,64.30
2023-05-14T17:58:20.517Z,64.49
2023-05-14T18:00:46.621Z,64.33
2023-05-14T18:03:12.921Z,64.07
2023-05-14T18:05:39.139Z,64.25
2023-05-14T18:08:05.267Z,64.30
2023-05-14T18:10:31.388Z,64.41
2023-05-14T18:12:57.483Z,64.41
2023-05-14T18:15:23.738Z,64.37
2023-05-14T18:17:50.056Z,64.45
2023-05-14T18:20:16.185Z,64.26
2023-05-14T18:22:42.274Z,64.44
2023-05-14T18:25:08.382Z,64.41
2023-05-14T18:27:34.470Z,64.31
2023-05-14T18:30:00.630Z,64.28
2023-05-14T18:32:26.825Z,64.32
2023-05-14T18:34:52.957Z,64.33
2023-05-14T18:37:19.070Z,64.35
2023-05-14T18:39:45.195Z,64.49
2023-05-14T18:42:11.296Z,64.56
2023-05-14T18:44:37.445Z,64.54
2023-05-14T18:47:03.593Z,64.50
2023-05-14T18:49:29.691Z,64.50
2023-05-14T18:51:55.838Z,64.44
2023-05-14T18:54:21.960Z,64.50
2023-05-14T18:56:48.069Z,64.39
2023-05-14T18:59:14.174Z,64.54
2023-05-14T19:01:40.320Z,64.65
2023-05-14T19:04:06.574Z,64.49
2023-05-14T19:06:32.705Z,64.50
2023-05-14T19:08:58.839Z,64.50
2023-05-14T19:11:24.953Z,64.55
2023-05-14T19:13:51.049Z,64.63
2023-05-14T19:16:17.195Z,64.70
2023-05-14T19:18:43.362Z,64.70
2023-05-14T19:21:09.472Z,64.73
2023-05-14T19:23:35.606Z,64.71
2023-05-14T19:26:01.715Z,64.72
2023-05-14T19:28:27.815Z,64.72
2023-05-14T19:30:53.925Z,64.66
2023-05-14T19:33:20.039Z,64.64
2023-05-14T19:35:46.151Z,64.74
2023-05-14T19:38:12.263Z,64.79
2023-05-14T19:40:38.373Z,64.72
2023-05-14T19:43:04.454Z,64.63
2023-05-14T19:45:31.050Z,64.71
2023-05-14T19:47:57.214Z,64.75
2023-05-14T19:50:23.348Z,64.80
2023-05-14T19:52:49.526Z,64.79
2023-05-14T19:55:15.621Z,64.70
2023-05-14T19:57:41.759Z,64.75
2023-05-14T20:00:07.919Z,64.84
2023-05-14T20:02:34.095Z,64.77
2023-05-14T20:05:00.261Z,64.82
2023-05-14T20:07:26.387Z,64.89
2023-05-14T20:09:52.467Z,64.83
2023-05-14T20:12:18.572Z,64.88
2023-05-14T20:14:44.697Z,64.89
2023-05-14T20:17:10.912Z,64.87
2023-05-14T20:19:37.090Z,64.68
2023-05-14T20:22:03.207Z,64.75
2023-05-14T20:24:29.319Z,64.93
2023-05-14T20:26:55.419Z,64.59
2023-05-14T20:29:21.540Z,64.77
2023-05-14T20:31:47.647Z,64.93
2023-05-14T20:34:13.744Z,64.99
2023-05-14T20:36:39.941Z,64.80
2023-05-14T20:39:06.145Z,64.83
2023-05-14T20:41:32.324Z,64.86
2023-05-14T20:43:58.444Z,64.83
2023-05-14T20:46:24.586Z,64.84
2023-05-14T20:48:50.697Z,64.83
2023-05-14T20:51:16.858Z,64.96
2023-05-14T20:53:43.000Z,64.91
2023-05-14T20:56:09.109Z,64.93
2023-05-14T20:58:35.383Z,64.98
2023-05-14T21:01:01.503Z,64.90
2023-05-14T21:03:27.743Z,64.77
2023-05-14T21:05:54.058Z,64.86
2023-05-14T21:08:20.257Z,65.05
2023-05-14T21:10:46.360Z,65.01
2023-05-14T21:13:12.471Z,64.91
2023-05-14T21:15:38.580Z,64.98
2023-05-14T21:18:04.716Z,65.00
2023-05-14T21:20:30.867Z,64.86
2023-05-14T21:22:56.951Z,64.90
2023-05-14T21:25:23.194Z,64.91
2023-05-14T21:27:49.440Z,65.02
2023-05-14T21:30:15.540Z,65.05
2023-05-14T21:32:41.704Z,64.91
2023-05-14T21:35:07.972Z,64.91
2023-05-14T21:37:34.070Z,64.89
2023-05-14T21:40:00.216Z,64.87
2023-05-14T21:42:26.408Z,64.86
2023-05-14T21:44:52.529Z,65.03
2023-05-14T21:47:18.783Z,64.83
2023-05-14T21:49:45.000Z,64.91
2023-05-14T21:52:11.105Z,65.03
2023-05-14T21:54:37.197Z,65.08
2023-05-14T21:57:03.298Z,64.88
2023-05-14T21:59:29.392Z,64.93
2023-05-14T22:02:06.718Z,64.91
2023-05-14T22:04:33.636Z,65.02
2023-05-14T22:06:59.733Z,64.92
2023-05-14T22:09:25.888Z,65.03
2023-05-14T22:11:51.997Z,64.91
2023-05-14T22:14:18.096Z,64.89
2023-05-14T22:16:44.226Z,65.03
2023-05-14T22:19:10.405Z,64.88
2023-05-14T22:21:36.516Z,64.92
2023-05-14T22:24:02.622Z,64.94
2023-05-14T22:26:28.753Z,65.08
2023-05-14T22:28:54.846Z,64.87
2023-05-14T22:31:20.992Z,65.07
2023-05-14T22:33:47.158Z,65.25
2023-05-14T22:36:13.270Z,65.05
2023-05-14T22:38:39.368Z,65.03
2023-05-14T22:41:05.512Z,64.92
2023-05-14T22:43:31.645Z,65.05
2023-05-14T22:45:57.742Z,64.89
2023-05-14T22:48:23.868Z,64.94
2023-05-14T22:50:49.975Z,64.89
2023-05-14T22:53:16.092Z,64.86
2023-05-14T22:55:42.301Z,64.90
2023-05-14T22:58:08.425Z,64.87
2023-05-14T23:00:34.561Z,64.97
2023-05-14T23:03:00.785Z,64.89
2023-05-14T23:05:27.139Z,65.02
2023-05-14T23:07:53.393Z,65.08
2023-05-14T23:10:19.513Z,64.89
2023-05-14T23:12:45.597Z,64.93
2023-05-14T23:15:11.695Z,65.04
2023-05-14T23:17:37.862Z,64.98
2023-05-14T23:20:04.025Z,65.00
2023-05-14T23:22:30.122Z,64.91
2023-05-14T23:24:56.231Z,65.03
2023-05-14T23:27:22.347Z,65.04
2023-05-14T23:29:48.456Z,64.93
2023-05-14T23:32:14.688Z,64.97
2023-05-14T23:34:40.883Z,65.02
2023-05-14T23:37:06.986Z,65.02
2023-05-14T23:39:33.094Z,64.95
2023-05-14T23:41:59.206Z,64.93
2023-05-14T23:44:25.320Z,64.92
2023-05-14T23:46:51.497Z,65.07
2023-05-14T23:49:17.611Z,65.03
2023-05-14T23:51:43.705Z,65.04
2023-05-14T23:54:09.831Z,64.85
2023-05-14T23:56:35.921Z,64.87
2023-05-14T23:59:02.023Z,64.87
